JST418 YSSY-YBCG
Flight info
| Callsign | JST418 |
|---|---|
| Flight time | 1h 0m |
| Altitude | 37000 |
| Route | OLSEM Y193 BANDA Y43 GOMOL |
| Aircraft | A320/M-SDE3FGHIRWY/LB1 |
Departure
| Time | 2026-04-30 06:51 |
|---|---|
| Airport | Sydney Kingsford Smith International Airport (YSSY) |
Arrival
| Time | 2026-04-30 07:52 |
|---|---|
| Airport | Gold Coast Airport (YBCG) |
| Time | Latitude | Longitude | Altitude | Speed | Heading |
|---|---|---|---|---|---|
| 2026-04-30 06:23 | -33.93463 | 151.17705 | 30 ft | 0 kts | 99° |
| 2026-04-30 06:40 | -33.93459 | 151.17676 | 30 ft | 4 kts | 99° |
| 2026-04-30 06:41 | -33.93454 | 151.17644 | 30 ft | 4 kts | 103° |
| 2026-04-30 06:41 | -33.93446 | 151.17614 | 30 ft | 4 kts | 124° |
| 2026-04-30 06:41 | -33.93432 | 151.17599 | 30 ft | 0 kts | 172° |
| 2026-04-30 06:44 | -33.93433 | 151.17599 | 30 ft | 1 kts | 172° |
| 2026-04-30 06:44 | -33.93480 | 151.17584 | 30 ft | 16 kts | 182° |
| 2026-04-30 06:44 | -33.93615 | 151.17618 | 30 ft | 22 kts | 168° |
| 2026-04-30 06:44 | -33.93759 | 151.17690 | 30 ft | 24 kts | 167° |
| 2026-04-30 06:45 | -33.93869 | 151.17763 | 30 ft | 16 kts | 144° |
| 2026-04-30 06:45 | -33.93989 | 151.17801 | 29 ft | 20 kts | 167° |
| 2026-04-30 06:45 | -33.94133 | 151.17839 | 29 ft | 22 kts | 168° |
| 2026-04-30 06:45 | -33.94291 | 151.17880 | 30 ft | 25 kts | 168° |
| 2026-04-30 06:46 | -33.94459 | 151.17904 | 30 ft | 21 kts | 205° |
| 2026-04-30 06:46 | -33.94596 | 151.17900 | 30 ft | 22 kts | 169° |
| 2026-04-30 06:46 | -33.94778 | 151.17948 | 30 ft | 29 kts | 168° |
| 2026-04-30 06:46 | -33.94984 | 151.18001 | 30 ft | 29 kts | 168° |
| 2026-04-30 06:47 | -33.95100 | 151.18082 | 30 ft | 18 kts | 98° |
| 2026-04-30 06:47 | -33.95075 | 151.18241 | 30 ft | 20 kts | 78° |
| 2026-04-30 06:47 | -33.95043 | 151.18417 | 30 ft | 23 kts | 78° |
| 2026-04-30 06:47 | -33.95124 | 151.18553 | 30 ft | 23 kts | 138° |
| 2026-04-30 06:48 | -33.95252 | 151.18684 | 30 ft | 26 kts | 148° |
| 2026-04-30 06:48 | -33.95431 | 151.18749 | 30 ft | 28 kts | 167° |
| 2026-04-30 06:48 | -33.95634 | 151.18802 | 30 ft | 31 kts | 167° |
| 2026-04-30 06:48 | -33.95848 | 151.18858 | 30 ft | 29 kts | 169° |
| 2026-04-30 06:49 | -33.96052 | 151.18910 | 30 ft | 31 kts | 168° |
| 2026-04-30 06:49 | -33.96273 | 151.18968 | 30 ft | 34 kts | 168° |
| 2026-04-30 06:49 | -33.96495 | 151.19026 | 30 ft | 32 kts | 168° |
| 2026-04-30 06:49 | -33.96705 | 151.19076 | 30 ft | 27 kts | 177° |
| 2026-04-30 06:50 | -33.96893 | 151.19084 | 30 ft | 29 kts | 168° |
| 2026-04-30 06:50 | -33.97065 | 151.19128 | 30 ft | 18 kts | 168° |
| 2026-04-30 06:50 | -33.97119 | 151.19235 | 29 ft | 18 kts | 79° |
| 2026-04-30 06:50 | -33.97049 | 151.19367 | 25 ft | 21 kts | 3° |
| 2026-04-30 06:51 | -33.96731 | 151.19287 | 23 ft | 83 kts | 347° |
| 2026-04-30 06:51 | -33.95965 | 151.19088 | 29 ft | 139 kts | 348° |
| 2026-04-30 06:51 | -33.94951 | 151.18831 | 506 ft | 148 kts | 353° |
| 2026-04-30 06:51 | -33.93942 | 151.18831 | 1138 ft | 147 kts | 29° |
| 2026-04-30 06:52 | -33.93149 | 151.19589 | 1749 ft | 152 kts | 44° |
| 2026-04-30 06:52 | -33.92331 | 151.20529 | 2097 ft | 174 kts | 44° |
| 2026-04-30 06:52 | -33.91335 | 151.21512 | 2416 ft | 198 kts | 35° |
| 2026-04-30 06:52 | -33.90098 | 151.22460 | 2894 ft | 223 kts | 32° |
| 2026-04-30 06:53 | -33.88696 | 151.23472 | 3467 ft | 245 kts | 32° |
| 2026-04-30 06:53 | -33.87202 | 151.24536 | 4351 ft | 253 kts | 31° |
| 2026-04-30 06:53 | -33.85673 | 151.25629 | 5335 ft | 258 kts | 32° |
| 2026-04-30 06:53 | -33.84146 | 151.26817 | 6245 ft | 265 kts | 41° |
| 2026-04-30 06:54 | -33.83007 | 151.28560 | 7135 ft | 269 kts | 64° |
| 2026-04-30 06:54 | -33.82388 | 151.30701 | 8020 ft | 274 kts | 73° |
| 2026-04-30 06:54 | -33.81833 | 151.32903 | 8984 ft | 276 kts | 73° |
| 2026-04-30 06:54 | -33.81266 | 151.35126 | 9880 ft | 280 kts | 70° |
| 2026-04-30 06:55 | -33.80411 | 151.37247 | 10697 ft | 284 kts | 56° |
| 2026-04-30 06:55 | -33.79181 | 151.39183 | 11180 ft | 302 kts | 51° |
| 2026-04-30 06:55 | -33.77808 | 151.41224 | 11485 ft | 324 kts | 50° |
| 2026-04-30 06:55 | -33.76364 | 151.43360 | 12087 ft | 333 kts | 50° |
| 2026-04-30 06:56 | -33.74889 | 151.45538 | 12821 ft | 338 kts | 50° |
| 2026-04-30 06:56 | -33.73393 | 151.47750 | 13545 ft | 344 kts | 50° |
| 2026-04-30 06:56 | -33.71879 | 151.49990 | 14293 ft | 347 kts | 50° |
| 2026-04-30 06:56 | -33.70353 | 151.52252 | 14973 ft | 350 kts | 50° |
| 2026-04-30 06:57 | -33.68811 | 151.54531 | 15599 ft | 354 kts | 51° |
| 2026-04-30 06:57 | -33.67248 | 151.56841 | 16232 ft | 358 kts | 51° |
| 2026-04-30 06:57 | -33.65664 | 151.59160 | 16857 ft | 362 kts | 49° |
| 2026-04-30 06:57 | -33.63841 | 151.61207 | 17459 ft | 367 kts | 38° |
| 2026-04-30 06:58 | -33.61711 | 151.62933 | 18080 ft | 371 kts | 34° |
| 2026-04-30 06:58 | -33.59533 | 151.64634 | 18691 ft | 376 kts | 34° |
| 2026-04-30 06:58 | -33.57331 | 151.66358 | 19227 ft | 380 kts | 34° |
| 2026-04-30 06:58 | -33.55111 | 151.68102 | 19789 ft | 384 kts | 34° |
| 2026-04-30 06:59 | -33.52863 | 151.69869 | 20352 ft | 388 kts | 35° |
| 2026-04-30 06:59 | -33.50577 | 151.71620 | 20899 ft | 392 kts | 31° |
| 2026-04-30 06:59 | -33.48075 | 151.72980 | 21417 ft | 398 kts | 20° |
| 2026-04-30 06:59 | -33.45393 | 151.73891 | 21920 ft | 403 kts | 16° |
| 2026-04-30 07:00 | -33.42676 | 151.74761 | 22430 ft | 407 kts | 16° |
| 2026-04-30 07:00 | -33.39927 | 151.75640 | 22935 ft | 410 kts | 16° |
| 2026-04-30 07:00 | -33.37161 | 151.76529 | 23447 ft | 414 kts | 16° |
| 2026-04-30 07:00 | -33.34367 | 151.77433 | 23945 ft | 417 kts | 16° |
| 2026-04-30 07:01 | -33.31554 | 151.78345 | 24351 ft | 421 kts | 16° |
| 2026-04-30 07:01 | -33.28715 | 151.79262 | 24773 ft | 424 kts | 16° |
| 2026-04-30 07:01 | -33.25890 | 151.80176 | 25198 ft | 427 kts | 16° |
| 2026-04-30 07:01 | -33.23010 | 151.81105 | 25625 ft | 430 kts | 16° |
| 2026-04-30 07:02 | -33.20114 | 151.82036 | 26051 ft | 432 kts | 16° |
| 2026-04-30 07:02 | -33.17203 | 151.82973 | 26479 ft | 435 kts | 16° |
| 2026-04-30 07:02 | -33.14269 | 151.83917 | 26899 ft | 438 kts | 15° |
| 2026-04-30 07:02 | -33.11314 | 151.84868 | 27299 ft | 440 kts | 15° |
| 2026-04-30 07:03 | -33.08351 | 151.85821 | 27715 ft | 443 kts | 15° |
| 2026-04-30 07:03 | -33.05370 | 151.86782 | 28127 ft | 445 kts | 15° |
| 2026-04-30 07:03 | -33.02372 | 151.87746 | 28531 ft | 448 kts | 15° |
| 2026-04-30 07:03 | -32.99352 | 151.88717 | 28941 ft | 451 kts | 15° |
| 2026-04-30 07:04 | -32.96314 | 151.89688 | 29351 ft | 453 kts | 15° |
| 2026-04-30 07:04 | -32.93258 | 151.90663 | 29762 ft | 456 kts | 15° |
| 2026-04-30 07:04 | -32.90182 | 151.91646 | 30170 ft | 459 kts | 15° |
| 2026-04-30 07:04 | -32.87092 | 151.92634 | 30546 ft | 461 kts | 14° |
| 2026-04-30 07:05 | -32.80858 | 151.94631 | 31228 ft | 466 kts | 14° |
| 2026-04-30 07:05 | -32.77724 | 151.95632 | 31571 ft | 468 kts | 14° |
| 2026-04-30 07:05 | -32.74571 | 151.96636 | 31916 ft | 470 kts | 14° |
| 2026-04-30 07:06 | -32.71451 | 151.97625 | 32325 ft | 470 kts | 14° |
| 2026-04-30 07:06 | -32.68257 | 151.98637 | 32834 ft | 468 kts | 14° |
| 2026-04-30 07:06 | -32.65148 | 151.99624 | 33337 ft | 467 kts | 14° |
| 2026-04-30 07:06 | -32.62015 | 152.00618 | 33847 ft | 465 kts | 14° |
| 2026-04-30 07:07 | -32.58892 | 152.01611 | 34355 ft | 464 kts | 14° |
| 2026-04-30 07:07 | -32.55778 | 152.02602 | 34795 ft | 463 kts | 14° |
| 2026-04-30 07:07 | -32.52669 | 152.03591 | 35197 ft | 462 kts | 13° |
| 2026-04-30 07:07 | -32.49569 | 152.04577 | 35571 ft | 462 kts | 13° |
| 2026-04-30 07:08 | -32.46459 | 152.05566 | 35924 ft | 463 kts | 13° |
| 2026-04-30 07:08 | -32.43351 | 152.06553 | 36260 ft | 463 kts | 13° |
| 2026-04-30 07:08 | -32.40232 | 152.07539 | 36597 ft | 463 kts | 12° |
| 2026-04-30 07:08 | -32.37114 | 152.08525 | 36925 ft | 464 kts | 12° |
| 2026-04-30 07:09 | -32.33988 | 152.09511 | 37243 ft | 464 kts | 12° |
| 2026-04-30 07:09 | -32.30861 | 152.10497 | 37385 ft | 465 kts | 12° |
| 2026-04-30 07:09 | -32.24606 | 152.12471 | 37413 ft | 465 kts | 12° |
| 2026-04-30 07:10 | -32.18386 | 152.14423 | 37414 ft | 465 kts | 12° |
| 2026-04-30 07:10 | -32.12134 | 152.16391 | 37412 ft | 465 kts | 12° |
| 2026-04-30 07:11 | -32.05882 | 152.18362 | 37412 ft | 465 kts | 12° |
| 2026-04-30 07:11 | -31.99636 | 152.20323 | 37407 ft | 465 kts | 12° |
| 2026-04-30 07:12 | -31.93380 | 152.22277 | 37412 ft | 465 kts | 12° |
| 2026-04-30 07:12 | -31.87162 | 152.24219 | 37414 ft | 465 kts | 12° |
| 2026-04-30 07:13 | -31.80908 | 152.26173 | 37420 ft | 465 kts | 12° |
| 2026-04-30 07:13 | -31.74649 | 152.28125 | 37415 ft | 465 kts | 11° |
| 2026-04-30 07:14 | -31.68387 | 152.30070 | 37421 ft | 465 kts | 11° |
| 2026-04-30 07:14 | -31.62134 | 152.32014 | 37423 ft | 465 kts | 11° |
| 2026-04-30 07:15 | -31.55874 | 152.33956 | 37423 ft | 465 kts | 11° |
| 2026-04-30 07:15 | -31.50677 | 152.35564 | 37417 ft | 465 kts | 11° |
| 2026-04-30 07:16 | -31.43405 | 152.37818 | 37423 ft | 465 kts | 11° |
| 2026-04-30 07:16 | -31.37159 | 152.39754 | 37425 ft | 465 kts | 11° |
| 2026-04-30 07:17 | -31.30904 | 152.41690 | 37416 ft | 464 kts | 11° |
| 2026-04-30 07:18 | -31.22583 | 152.44256 | 37419 ft | 464 kts | 11° |
| 2026-04-30 07:18 | -31.16341 | 152.46178 | 37419 ft | 464 kts | 11° |
| 2026-04-30 07:19 | -31.10100 | 152.48092 | 37418 ft | 463 kts | 11° |
| 2026-04-30 07:19 | -31.03864 | 152.50004 | 37411 ft | 463 kts | 11° |
| 2026-04-30 07:20 | -30.97614 | 152.51927 | 37412 ft | 463 kts | 11° |
| 2026-04-30 07:20 | -30.91375 | 152.53848 | 37412 ft | 463 kts | 11° |
| 2026-04-30 07:21 | -30.85179 | 152.55736 | 37402 ft | 464 kts | 11° |
| 2026-04-30 07:21 | -30.78967 | 152.57776 | 37406 ft | 466 kts | 18° |
| 2026-04-30 07:22 | -30.69906 | 152.61982 | 37417 ft | 467 kts | 18° |
| 2026-04-30 07:22 | -30.63865 | 152.64788 | 37415 ft | 467 kts | 18° |
| 2026-04-30 07:23 | -30.57822 | 152.67590 | 37410 ft | 467 kts | 18° |
| 2026-04-30 07:23 | -30.51785 | 152.70381 | 37414 ft | 467 kts | 18° |
| 2026-04-30 07:24 | -30.45776 | 152.73151 | 37416 ft | 467 kts | 18° |
| 2026-04-30 07:24 | -30.39729 | 152.75936 | 37418 ft | 467 kts | 18° |
| 2026-04-30 07:25 | -30.33689 | 152.78712 | 37413 ft | 467 kts | 18° |
| 2026-04-30 07:25 | -30.27643 | 152.81496 | 37408 ft | 467 kts | 18° |
| 2026-04-30 07:26 | -30.21595 | 152.84265 | 37419 ft | 467 kts | 18° |
| 2026-04-30 07:26 | -30.15543 | 152.87032 | 37402 ft | 467 kts | 18° |
| 2026-04-30 07:27 | -30.09494 | 152.89803 | 37400 ft | 467 kts | 18° |
| 2026-04-30 07:27 | -30.03492 | 152.92549 | 37402 ft | 467 kts | 18° |
| 2026-04-30 07:28 | -29.97443 | 152.95311 | 37397 ft | 467 kts | 18° |
| 2026-04-30 07:28 | -29.91397 | 152.98069 | 37387 ft | 467 kts | 18° |
| 2026-04-30 07:29 | -29.85340 | 153.00823 | 37392 ft | 467 kts | 18° |
| 2026-04-30 07:29 | -29.79297 | 153.03570 | 37086 ft | 466 kts | 18° |
| 2026-04-30 07:30 | -29.73310 | 153.06292 | 36326 ft | 467 kts | 18° |
| 2026-04-30 07:30 | -29.70268 | 153.07675 | 35515 ft | 471 kts | 18° |
| 2026-04-30 07:30 | -29.67199 | 153.09068 | 34689 ft | 476 kts | 18° |
| 2026-04-30 07:31 | -29.64107 | 153.10472 | 33964 ft | 477 kts | 19° |
| 2026-04-30 07:31 | -29.61038 | 153.11863 | 33420 ft | 472 kts | 19° |
| 2026-04-30 07:31 | -29.57995 | 153.13240 | 32860 ft | 468 kts | 19° |
| 2026-04-30 07:31 | -29.54982 | 153.14604 | 32283 ft | 464 kts | 19° |
| 2026-04-30 07:32 | -29.51985 | 153.15962 | 31711 ft | 460 kts | 19° |
| 2026-04-30 07:32 | -29.49016 | 153.17301 | 31143 ft | 457 kts | 20° |
| 2026-04-30 07:32 | -29.46070 | 153.18627 | 30587 ft | 453 kts | 20° |
| 2026-04-30 07:32 | -29.43149 | 153.19944 | 29962 ft | 449 kts | 20° |
| 2026-04-30 07:33 | -29.40255 | 153.21247 | 29417 ft | 443 kts | 20° |
| 2026-04-30 07:33 | -29.37401 | 153.22531 | 28867 ft | 438 kts | 20° |
| 2026-04-30 07:33 | -29.34582 | 153.23799 | 28338 ft | 433 kts | 20° |
| 2026-04-30 07:33 | -29.31794 | 153.25053 | 27816 ft | 428 kts | 20° |
| 2026-04-30 07:34 | -29.29035 | 153.26291 | 27069 ft | 428 kts | 20° |
| 2026-04-30 07:34 | -29.26262 | 153.27537 | 26486 ft | 426 kts | 21° |
| 2026-04-30 07:34 | -29.23525 | 153.28767 | 26013 ft | 420 kts | 21° |
| 2026-04-30 07:34 | -29.20813 | 153.29984 | 25547 ft | 416 kts | 21° |
| 2026-04-30 07:35 | -29.18134 | 153.31189 | 25086 ft | 412 kts | 21° |
| 2026-04-30 07:35 | -29.15481 | 153.32382 | 24635 ft | 408 kts | 21° |
| 2026-04-30 07:35 | -29.12846 | 153.33565 | 24181 ft | 405 kts | 21° |
| 2026-04-30 07:35 | -29.10227 | 153.34737 | 23673 ft | 403 kts | 21° |
| 2026-04-30 07:36 | -29.07662 | 153.35881 | 23202 ft | 399 kts | 21° |
| 2026-04-30 07:36 | -29.05085 | 153.37031 | 22724 ft | 395 kts | 22° |
| 2026-04-30 07:36 | -29.02539 | 153.38166 | 22246 ft | 391 kts | 22° |
| 2026-04-30 07:36 | -29.00011 | 153.39295 | 21756 ft | 388 kts | 22° |
| 2026-04-30 07:37 | -28.97509 | 153.40415 | 21272 ft | 385 kts | 22° |
| 2026-04-30 07:37 | -28.95025 | 153.41527 | 20772 ft | 382 kts | 22° |
| 2026-04-30 07:37 | -28.92556 | 153.42631 | 20277 ft | 379 kts | 22° |
| 2026-04-30 07:37 | -28.90104 | 153.43724 | 19781 ft | 377 kts | 22° |
| 2026-04-30 07:38 | -28.87671 | 153.44808 | 19281 ft | 375 kts | 23° |
| 2026-04-30 07:38 | -28.85244 | 153.45890 | 18787 ft | 373 kts | 23° |
| 2026-04-30 07:38 | -28.82829 | 153.46966 | 18248 ft | 371 kts | 23° |
| 2026-04-30 07:38 | -28.80436 | 153.48032 | 17750 ft | 367 kts | 23° |
| 2026-04-30 07:39 | -28.78065 | 153.49090 | 17266 ft | 364 kts | 23° |
| 2026-04-30 07:39 | -28.75720 | 153.50135 | 16769 ft | 361 kts | 23° |
| 2026-04-30 07:39 | -28.73390 | 153.51170 | 16284 ft | 357 kts | 23° |
| 2026-04-30 07:39 | -28.71079 | 153.52192 | 15807 ft | 354 kts | 23° |
| 2026-04-30 07:40 | -28.68791 | 153.53206 | 15332 ft | 352 kts | 24° |
| 2026-04-30 07:40 | -28.66516 | 153.54217 | 14859 ft | 350 kts | 24° |
| 2026-04-30 07:40 | -28.64256 | 153.55221 | 14389 ft | 348 kts | 23° |
| 2026-04-30 07:40 | -28.62037 | 153.56206 | 13898 ft | 346 kts | 24° |
| 2026-04-30 07:41 | -28.59801 | 153.57197 | 13423 ft | 343 kts | 24° |
| 2026-04-30 07:41 | -28.57589 | 153.58177 | 12959 ft | 339 kts | 24° |
| 2026-04-30 07:41 | -28.55398 | 153.59146 | 12500 ft | 337 kts | 24° |
| 2026-04-30 07:41 | -28.53221 | 153.60108 | 12049 ft | 335 kts | 24° |
| 2026-04-30 07:42 | -28.51048 | 153.61035 | 11603 ft | 333 kts | 22° |
| 2026-04-30 07:42 | -28.48854 | 153.61889 | 11153 ft | 332 kts | 21° |
| 2026-04-30 07:42 | -28.46661 | 153.62701 | 10705 ft | 331 kts | 21° |
| 2026-04-30 07:42 | -28.44468 | 153.63502 | 10263 ft | 330 kts | 21° |
| 2026-04-30 07:43 | -28.42320 | 153.64288 | 10108 ft | 317 kts | 21° |
| 2026-04-30 07:43 | -28.40274 | 153.65038 | 9877 ft | 302 kts | 21° |
| 2026-04-30 07:43 | -28.38289 | 153.65772 | 9499 ft | 298 kts | 21° |
| 2026-04-30 07:43 | -28.36307 | 153.66495 | 9095 ft | 298 kts | 21° |
| 2026-04-30 07:44 | -28.34331 | 153.67213 | 8621 ft | 300 kts | 21° |
| 2026-04-30 07:44 | -28.32367 | 153.67922 | 8170 ft | 293 kts | 21° |
| 2026-04-30 07:44 | -28.30413 | 153.68585 | 7618 ft | 293 kts | 15° |
| 2026-04-30 07:44 | -28.28391 | 153.68754 | 7054 ft | 298 kts | 358° |
| 2026-04-30 07:45 | -28.26371 | 153.68269 | 6503 ft | 299 kts | 341° |
| 2026-04-30 07:45 | -28.24498 | 153.67270 | 5920 ft | 296 kts | 335° |
| 2026-04-30 07:45 | -28.22663 | 153.66244 | 5398 ft | 292 kts | 335° |
| 2026-04-30 07:45 | -28.20863 | 153.65245 | 5118 ft | 282 kts | 336° |
| 2026-04-30 07:46 | -28.19138 | 153.64292 | 5037 ft | 270 kts | 336° |
| 2026-04-30 07:46 | -28.17481 | 153.63373 | 4951 ft | 260 kts | 336° |
| 2026-04-30 07:46 | -28.15889 | 153.62488 | 4844 ft | 250 kts | 335° |
| 2026-04-30 07:46 | -28.14462 | 153.61416 | 4641 ft | 246 kts | 323° |
| 2026-04-30 07:47 | -28.13119 | 153.60197 | 4265 ft | 248 kts | 322° |
| 2026-04-30 07:47 | -28.11784 | 153.58977 | 3930 ft | 243 kts | 322° |
| 2026-04-30 07:47 | -28.10482 | 153.57784 | 3607 ft | 239 kts | 322° |
| 2026-04-30 07:47 | -28.09208 | 153.56613 | 3282 ft | 234 kts | 321° |
| 2026-04-30 07:48 | -28.08131 | 153.55266 | 2993 ft | 227 kts | 302° |
| 2026-04-30 07:48 | -28.07450 | 153.53713 | 2682 ft | 215 kts | 285° |
| 2026-04-30 07:48 | -28.07162 | 153.52089 | 2388 ft | 207 kts | 269° |
| 2026-04-30 07:48 | -28.07226 | 153.50502 | 2113 ft | 196 kts | 253° |
| 2026-04-30 07:49 | -28.07629 | 153.49120 | 1868 ft | 172 kts | 232° |
| 2026-04-30 07:49 | -28.08319 | 153.48166 | 1669 ft | 146 kts | 213° |
| 2026-04-30 07:49 | -28.09125 | 153.47584 | 1468 ft | 131 kts | 195° |
| 2026-04-30 07:49 | -28.09968 | 153.47307 | 1303 ft | 124 kts | 182° |
| 2026-04-30 07:50 | -28.10826 | 153.47299 | 1141 ft | 123 kts | 168° |
| 2026-04-30 07:50 | -28.11655 | 153.47547 | 977 ft | 125 kts | 155° |
| 2026-04-30 07:50 | -28.12421 | 153.48012 | 809 ft | 126 kts | 149° |
| 2026-04-30 07:50 | -28.13190 | 153.48521 | 627 ft | 131 kts | 150° |
| 2026-04-30 07:51 | -28.13965 | 153.49020 | 421 ft | 127 kts | 150° |
| 2026-04-30 07:51 | -28.14734 | 153.49500 | 291 ft | 125 kts | 153° |
| 2026-04-30 07:51 | -28.15498 | 153.49978 | 111 ft | 125 kts | 155° |
| 2026-04-30 07:51 | -28.16228 | 153.50438 | 30 ft | 106 kts | 150° |
| 2026-04-30 07:52 | -28.16633 | 153.50696 | 28 ft | 41 kts | 150° |
| 2026-04-30 07:52 | -28.16860 | 153.50841 | 28 ft | 25 kts | 150° |
| 2026-04-30 07:52 | -28.16948 | 153.50932 | 28 ft | 16 kts | 91° |
| 2026-04-30 07:52 | -28.16898 | 153.51048 | 30 ft | 16 kts | 61° |
| 2026-04-30 07:53 | -28.16849 | 153.51136 | 26 ft | 12 kts | 45° |
| 2026-04-30 07:53 | -28.16804 | 153.51222 | 26 ft | 9 kts | 60° |
| 2026-04-30 07:53 | -28.16788 | 153.51253 | 26 ft | 1 kts | 60° |